createdAt,value
2018-11-11T00:01:06.866Z,24.70
2018-11-11T00:03:35.006Z,25.77
2018-11-11T00:06:03.180Z,26.13
2018-11-11T00:08:31.324Z,26.53
2018-11-11T00:10:59.472Z,25.17
2018-11-11T00:13:27.675Z,25.13
2018-11-11T00:15:55.792Z,25.40
2018-11-11T00:18:23.922Z,25.73
2018-11-11T00:20:52.075Z,26.20
2018-11-11T00:23:20.262Z,25.90
2018-11-11T00:25:48.407Z,26.40
2018-11-11T00:28:16.565Z,25.50
2018-11-11T00:30:44.722Z,25.73
2018-11-11T00:33:12.855Z,23.53
2018-11-11T00:35:40.970Z,24.57
2018-11-11T00:38:09.132Z,23.67
2018-11-11T00:40:37.256Z,23.50
2018-11-11T00:43:05.400Z,23.63
2018-11-11T00:45:33.574Z,23.87
2018-11-11T00:48:01.721Z,24.53
2018-11-11T00:50:29.893Z,24.93
2018-11-11T00:52:58.022Z,25.43
2018-11-11T00:55:30.646Z,26.30
2018-11-11T00:57:58.805Z,26.83
2018-11-11T01:00:26.964Z,26.43
2018-11-11T01:02:55.074Z,28.57
2018-11-11T01:05:23.203Z,27.77
2018-11-11T01:07:51.365Z,26.57
2018-11-11T01:10:19.479Z,29.30
2018-11-11T01:12:47.650Z,28.17
2018-11-11T01:15:16.553Z,29.40
2018-11-11T01:17:44.709Z,28.53
2018-11-11T01:20:17.009Z,27.43
2018-11-11T01:22:45.588Z,29.07
2018-11-11T01:25:14.741Z,28.47
2018-11-11T01:27:42.948Z,28.20
2018-11-11T01:30:11.123Z,26.67
2018-11-11T01:32:39.357Z,26.30
2018-11-11T01:35:08.767Z,25.37
2018-11-11T01:37:37.018Z,24.40
2018-11-11T01:40:05.545Z,25.33
2018-11-11T01:42:34.779Z,24.23
2018-11-11T01:45:02.919Z,23.87
2018-11-11T01:47:31.026Z,24.47
2018-11-11T01:49:59.211Z,23.07
2018-11-11T01:52:27.403Z,23.80
2018-11-11T01:54:55.536Z,22.77
2018-11-11T01:57:23.710Z,23.07
2018-11-11T01:59:51.825Z,22.43
2018-11-11T02:02:19.972Z,22.77
2018-11-11T02:04:48.110Z,24.00
2018-11-11T02:07:16.259Z,23.70
2018-11-11T02:09:44.473Z,23.90
2018-11-11T02:12:12.570Z,23.73
2018-11-11T02:14:40.721Z,24.77
2018-11-11T02:17:08.838Z,25.20
2018-11-11T02:19:36.992Z,24.07
2018-11-11T02:22:05.156Z,24.87
2018-11-11T02:24:33.298Z,24.20
2018-11-11T02:27:01.478Z,24.60
2018-11-11T02:29:29.591Z,24.63
2018-11-11T02:31:57.711Z,23.93
2018-11-11T02:34:25.830Z,24.87
2018-11-11T02:36:53.980Z,23.20
2018-11-11T02:39:22.094Z,24.27
2018-11-11T02:41:50.280Z,26.33
2018-11-11T02:44:18.402Z,23.77
2018-11-11T02:46:46.565Z,24.87
2018-11-11T02:49:14.699Z,24.27
2018-11-11T02:51:42.861Z,23.53
2018-11-11T02:54:10.997Z,23.33
2018-11-11T02:56:39.105Z,24.10
2018-11-11T02:59:07.204Z,22.83
2018-11-11T03:01:35.365Z,23.37
2018-11-11T03:04:03.555Z,24.50
2018-11-11T03:06:31.737Z,22.13
2018-11-11T03:08:59.908Z,21.70
2018-11-11T03:11:28.128Z,22.37
2018-11-11T03:13:56.465Z,24.73
2018-11-11T03:16:24.635Z,21.70
2018-11-11T03:18:52.780Z,22.90
2018-11-11T03:21:20.928Z,23.67
2018-11-11T03:23:49.019Z,23.70
2018-11-11T03:26:17.128Z,22.40
2018-11-11T03:28:45.262Z,22.57
2018-11-11T03:31:13.418Z,23.07
2018-11-11T03:33:41.507Z,23.50
2018-11-11T03:36:09.611Z,23.70
2018-11-11T03:38:37.773Z,24.90
2018-11-11T03:41:06.066Z,21.97
2018-11-11T03:43:34.202Z,22.83
2018-11-11T03:46:02.352Z,23.47
2018-11-11T03:48:30.561Z,24.07
2018-11-11T03:50:58.713Z,23.93
2018-11-11T03:53:26.849Z,23.47
2018-11-11T03:55:54.989Z,22.67
2018-11-11T03:58:23.112Z,22.53
2018-11-11T04:00:51.260Z,23.00
2018-11-11T04:03:19.405Z,24.47
2018-11-11T04:05:47.494Z,24.00
2018-11-11T04:08:15.648Z,25.23
2018-11-11T04:10:43.766Z,24.03
2018-11-11T04:13:11.905Z,24.20
2018-11-11T04:15:40.009Z,23.50
2018-11-11T04:18:08.118Z,24.20
2018-11-11T04:20:36.254Z,23.20
2018-11-11T04:23:04.439Z,24.43
2018-11-11T04:25:32.531Z,25.03
2018-11-11T04:28:00.710Z,22.03
2018-11-11T04:30:28.807Z,24.57
2018-11-11T04:32:56.971Z,25.73
2018-11-11T04:35:25.092Z,24.03
2018-11-11T04:37:53.235Z,25.50
2018-11-11T04:40:21.352Z,24.17
2018-11-11T04:42:49.508Z,25.13
2018-11-11T04:45:17.626Z,22.20
2018-11-11T04:47:46.442Z,25.33
2018-11-11T04:50:16.631Z,23.47
2018-11-11T04:52:45.360Z,23.63
2018-11-11T04:55:13.475Z,24.27
2018-11-11T04:57:41.942Z,25.23
2018-11-11T05:00:11.074Z,24.67
2018-11-11T05:02:39.429Z,25.27
2018-11-11T05:05:07.951Z,24.10
2018-11-11T05:07:36.105Z,22.27
2018-11-11T05:10:04.581Z,23.77
2018-11-11T05:12:32.699Z,22.50
2018-11-11T05:15:00.823Z,23.63
2018-11-11T05:17:28.975Z,23.00
2018-11-11T05:19:57.119Z,23.40
2018-11-11T05:22:25.273Z,21.87
2018-11-11T05:24:53.423Z,22.57
2018-11-11T05:27:21.553Z,21.97
2018-11-11T05:29:49.681Z,21.70
2018-11-11T05:32:17.799Z,22.10
2018-11-11T05:34:45.933Z,20.93
2018-11-11T05:37:14.154Z,21.57
2018-11-11T05:39:42.286Z,19.53
2018-11-11T05:42:10.450Z,19.43
2018-11-11T05:44:38.552Z,20.40
2018-11-11T05:47:06.706Z,20.63
2018-11-11T05:49:34.797Z,21.20
2018-11-11T05:52:02.954Z,19.20
2018-11-11T05:54:31.147Z,21.07
2018-11-11T05:56:59.305Z,18.80
2018-11-11T05:59:27.410Z,17.27
2018-11-11T06:01:55.567Z,18.53
2018-11-11T06:04:23.708Z,18.07
2018-11-11T06:06:51.823Z,18.17
2018-11-11T06:09:19.949Z,19.47
2018-11-11T06:11:48.106Z,19.10
2018-11-11T06:14:16.355Z,18.90
2018-11-11T06:16:44.473Z,17.83
2018-11-11T06:19:12.635Z,18.83
2018-11-11T06:21:40.743Z,19.10
2018-11-11T06:24:08.882Z,18.77
2018-11-11T06:26:37.075Z,19.83
2018-11-11T06:29:05.579Z,19.27
2018-11-11T06:31:33.748Z,18.90
2018-11-11T06:34:01.878Z,18.13
2018-11-11T06:36:30.161Z,19.10
2018-11-11T06:38:58.277Z,20.17
2018-11-11T06:41:26.468Z,18.83
2018-11-11T06:43:54.605Z,19.07
2018-11-11T06:46:22.771Z,19.57
2018-11-11T06:48:50.918Z,18.13
2018-11-11T06:51:19.028Z,18.63
2018-11-11T06:53:47.251Z,18.70
2018-11-11T06:56:15.363Z,18.53
2018-11-11T06:58:43.481Z,19.43
2018-11-11T07:01:11.731Z,18.60
2018-11-11T07:04:00.383Z,17.87
2018-11-11T07:06:28.946Z,18.60
2018-11-11T07:08:57.106Z,17.33
2018-11-11T07:11:25.300Z,17.73
2018-11-11T07:13:53.460Z,17.20
2018-11-11T07:16:21.612Z,17.07
2018-11-11T07:18:49.761Z,16.80
2018-11-11T07:21:18.413Z,16.40
2018-11-11T07:23:46.884Z,16.60
2018-11-11T07:26:15.003Z,16.80
2018-11-11T07:28:43.183Z,14.80
2018-11-11T07:31:11.331Z,15.13
2018-11-11T07:33:39.954Z,14.30
2018-11-11T07:36:09.006Z,15.47
2018-11-11T07:38:37.184Z,16.00
2018-11-11T07:41:05.292Z,16.40
2018-11-11T07:43:33.451Z,15.20
2018-11-11T07:46:01.602Z,16.67
2018-11-11T07:48:29.708Z,15.93
2018-11-11T07:50:57.835Z,15.30
2018-11-11T07:53:25.953Z,14.10
2018-11-11T07:55:54.203Z,15.20
2018-11-11T07:58:22.314Z,13.80
2018-11-11T08:00:50.417Z,14.27
2018-11-11T08:03:18.643Z,13.40
2018-11-11T08:05:46.801Z,12.90
2018-11-11T08:08:14.939Z,13.80
2018-11-11T08:10:48.563Z,13.43
2018-11-11T08:13:16.897Z,12.43
2018-11-11T08:15:45.050Z,12.73
2018-11-11T08:18:13.191Z,12.40
2018-11-11T08:20:41.437Z,12.63
2018-11-11T08:23:09.647Z,12.37
2018-11-11T08:25:37.887Z,12.83
2018-11-11T08:28:05.974Z,11.47
2018-11-11T08:30:34.149Z,13.40
2018-11-11T08:33:02.415Z,11.70
2018-11-11T08:35:30.613Z,12.73
2018-11-11T08:37:58.714Z,12.03
2018-11-11T08:40:26.864Z,12.53
2018-11-11T08:42:54.997Z,12.00
2018-11-11T08:45:23.254Z,11.80
2018-11-11T08:47:51.391Z,11.70
2018-11-11T08:50:19.527Z,11.23
2018-11-11T08:52:47.673Z,11.17
2018-11-11T08:55:15.787Z,11.23
2018-11-11T08:57:43.950Z,10.30
2018-11-11T09:00:12.988Z,10.97
2018-11-11T09:02:41.422Z,11.80
2018-11-11T09:05:09.623Z,12.50
2018-11-11T09:07:38.358Z,11.40
2018-11-11T09:10:08.415Z,12.17
2018-11-11T09:12:36.789Z,11.67
2018-11-11T09:15:05.970Z,11.90
2018-11-11T09:17:34.207Z,13.50
2018-11-11T09:20:02.249Z,11.67
2018-11-11T09:22:30.375Z,13.10
2018-11-11T09:24:58.527Z,10.83
2018-11-11T09:27:26.701Z,11.03
2018-11-11T09:29:54.843Z,11.77
2018-11-11T09:32:23.027Z,12.00
2018-11-11T09:34:51.203Z,10.73
2018-11-11T09:37:19.373Z,11.40
2018-11-11T09:39:47.512Z,12.83
2018-11-11T09:42:15.753Z,12.13
2018-11-11T09:44:43.881Z,11.07
2018-11-11T09:47:12.024Z,11.30
2018-11-11T09:49:40.129Z,12.70
2018-11-11T09:52:08.311Z,11.67
2018-11-11T09:54:36.478Z,10.97
2018-11-11T09:57:04.762Z,11.47
2018-11-11T09:59:32.907Z,11.20
2018-11-11T10:02:01.114Z,11.27
2018-11-11T10:06:35.868Z,10.97
2018-11-11T10:09:09.867Z,11.90
2018-11-11T10:11:54.342Z,10.17
2018-11-11T10:14:29.600Z,11.80
2018-11-11T10:17:03.230Z,11.20
2018-11-11T10:19:37.502Z,11.77
2018-11-11T10:22:15.305Z,11.83
2018-11-11T10:26:53.755Z,11.40
2018-11-11T10:29:57.141Z,11.43
2018-11-11T10:32:35.585Z,11.50
2018-11-11T10:35:13.037Z,11.33
2018-11-11T10:37:44.663Z,11.87
2018-11-11T10:40:18.541Z,11.57
2018-11-11T10:42:52.019Z,11.70
2018-11-11T10:45:39.042Z,12.50
2018-11-11T10:48:09.316Z,12.53
2018-11-11T10:50:41.715Z,11.27
2018-11-11T10:53:09.956Z,11.60
2018-11-11T10:55:38.071Z,12.50
2018-11-11T10:58:07.189Z,12.70
2018-11-11T11:00:40.651Z,12.43
2018-11-11T11:03:14.115Z,12.97
2018-11-11T11:05:42.290Z,13.17
2018-11-11T11:08:10.422Z,11.73
2018-11-11T11:10:38.610Z,11.87
2018-11-11T11:13:06.783Z,12.20
2018-11-11T11:15:34.920Z,11.70
2018-11-11T11:18:03.062Z,12.93
2018-11-11T11:20:31.243Z,12.80
2018-11-11T11:22:59.456Z,12.47
2018-11-11T11:25:27.574Z,12.80
2018-11-11T11:27:55.733Z,12.63
2018-11-11T11:30:23.885Z,12.73
2018-11-11T11:32:51.985Z,12.57
2018-11-11T11:35:20.211Z,11.97
2018-11-11T11:37:48.326Z,13.00
2018-11-11T11:40:16.465Z,11.73
2018-11-11T11:42:44.566Z,11.97
2018-11-11T11:45:12.813Z,11.93
2018-11-11T11:47:41.639Z,12.40
2018-11-11T11:50:10.871Z,11.23
2018-11-11T11:52:38.975Z,12.20
2018-11-11T11:55:07.415Z,12.00
2018-11-11T11:57:35.607Z,11.47
2018-11-11T12:00:03.972Z,10.50
2018-11-11T12:02:32.180Z,11.70
2018-11-11T12:05:00.367Z,11.33
2018-11-11T12:07:28.523Z,10.57
2018-11-11T12:09:56.681Z,11.30
2018-11-11T12:12:24.806Z,11.17
2018-11-11T12:14:52.973Z,11.63
2018-11-11T12:17:21.123Z,11.10
2018-11-11T12:19:49.294Z,12.17
2018-11-11T12:22:17.486Z,11.23
2018-11-11T12:24:45.866Z,11.07
2018-11-11T12:27:13.990Z,10.90
2018-11-11T12:29:42.114Z,11.43
2018-11-11T12:32:10.245Z,11.47
2018-11-11T12:34:38.388Z,11.93
2018-11-11T12:37:06.573Z,11.20
2018-11-11T12:39:34.878Z,11.90
2018-11-11T12:42:02.932Z,11.90
2018-11-11T12:44:31.128Z,11.57
2018-11-11T12:46:59.302Z,12.00
2018-11-11T12:49:27.332Z,12.10
2018-11-11T12:51:55.448Z,11.87
2018-11-11T12:54:23.558Z,12.57
2018-11-11T12:56:51.726Z,11.63
2018-11-11T12:59:19.867Z,11.60
2018-11-11T13:01:48.030Z,12.23
2018-11-11T13:04:16.189Z,12.30
2018-11-11T13:06:44.337Z,11.73
2018-11-11T13:09:12.461Z,11.93
2018-11-11T13:11:41.008Z,11.93
2018-11-11T13:14:09.062Z,12.00
2018-11-11T13:16:37.209Z,12.20
2018-11-11T13:19:07.470Z,12.40
2018-11-11T13:21:35.590Z,12.73
2018-11-11T13:24:03.711Z,12.17
2018-11-11T13:26:31.858Z,12.13
2018-11-11T13:28:59.976Z,12.37
2018-11-11T13:31:28.165Z,12.40
2018-11-11T13:33:56.328Z,12.43
2018-11-11T13:36:24.481Z,11.30
2018-11-11T13:38:52.700Z,11.37
2018-11-11T13:41:20.927Z,11.43
2018-11-11T13:43:50.192Z,11.40
2018-11-11T13:46:18.364Z,11.60
2018-11-11T13:48:46.498Z,12.90
2018-11-11T13:51:14.632Z,12.63
2018-11-11T13:53:42.775Z,12.00
2018-11-11T13:56:10.908Z,12.40
2018-11-11T13:58:39.051Z,13.00
2018-11-11T14:01:07.241Z,12.33
2018-11-11T14:03:35.397Z,11.67
2018-11-11T14:06:03.519Z,13.03
2018-11-11T14:08:31.699Z,11.10
2018-11-11T14:10:59.915Z,12.03
2018-11-11T14:13:28.031Z,12.23
2018-11-11T14:15:56.205Z,11.63
2018-11-11T14:18:24.444Z,13.53
2018-11-11T14:20:52.471Z,13.43
2018-11-11T14:23:20.623Z,13.50
2018-11-11T14:25:48.913Z,13.80
2018-11-11T14:28:16.977Z,12.90
2018-11-11T14:30:45.207Z,12.60
2018-11-11T14:33:13.378Z,14.40
2018-11-11T14:35:41.512Z,13.27
2018-11-11T14:38:09.745Z,13.27
2018-11-11T14:40:37.906Z,14.60
2018-11-11T14:43:06.052Z,13.70
2018-11-11T14:45:34.186Z,14.20
2018-11-11T14:48:02.337Z,14.60
2018-11-11T14:50:30.497Z,14.90
2018-11-11T14:52:58.652Z,13.90
2018-11-11T14:55:28.105Z,14.77
2018-11-11T14:57:56.547Z,14.70
2018-11-11T15:00:29.710Z,14.50
2018-11-11T15:02:58.787Z,14.27
2018-11-11T15:05:26.959Z,14.57
2018-11-11T15:07:55.199Z,16.27
2018-11-11T15:10:23.264Z,15.97
2018-11-11T15:12:51.373Z,16.27
2018-11-11T15:15:20.461Z,16.13
2018-11-11T15:17:49.194Z,17.03
2018-11-11T15:20:18.016Z,18.13
2018-11-11T15:22:46.450Z,16.40
2018-11-11T15:25:16.737Z,16.13
2018-11-11T15:27:45.240Z,16.20
2018-11-11T15:30:44.062Z,16.07
2018-11-11T15:33:12.324Z,16.23
2018-11-11T15:35:40.477Z,15.63
2018-11-11T15:38:08.617Z,16.60
2018-11-11T15:40:37.861Z,17.37
2018-11-11T15:43:06.231Z,16.27
2018-11-11T15:45:35.230Z,18.13
2018-11-11T15:48:03.941Z,17.93
2018-11-11T15:50:33.669Z,19.07
2018-11-11T15:53:04.076Z,19.77
2018-11-11T15:55:33.416Z,19.17
2018-11-11T15:58:01.591Z,20.77
2018-11-11T16:00:34.033Z,20.73
2018-11-11T16:03:03.114Z,19.90
2018-11-11T16:05:31.293Z,20.87
2018-11-11T16:08:00.132Z,22.60
2018-11-11T16:10:29.521Z,22.60
2018-11-11T16:13:03.016Z,23.67
2018-11-11T16:15:36.768Z,23.17
2018-11-11T16:18:07.515Z,22.03
2018-11-11T16:20:35.762Z,23.00
2018-11-11T16:23:04.958Z,23.53
2018-11-11T16:25:33.848Z,23.50
2018-11-11T16:28:02.111Z,24.63
2018-11-11T16:30:31.563Z,23.23
2018-11-11T16:33:00.204Z,22.43
2018-11-11T16:35:29.492Z,23.40
2018-11-11T16:37:58.183Z,23.10
2018-11-11T16:40:28.698Z,24.23
2018-11-11T16:42:57.048Z,23.53
2018-11-11T16:45:26.419Z,22.87
2018-11-11T16:47:54.849Z,24.33
2018-11-11T16:50:24.820Z,21.97
2018-11-11T16:52:53.682Z,24.07
2018-11-11T16:55:23.075Z,24.30
2018-11-11T16:57:52.137Z,24.03
2018-11-11T17:00:26.414Z,24.93
2018-11-11T17:02:55.088Z,25.97
2018-11-11T17:05:24.407Z,24.57
2018-11-11T17:07:52.775Z,24.77
2018-11-11T17:10:22.158Z,24.87
2018-11-11T17:12:51.375Z,26.83
2018-11-11T17:15:20.744Z,26.00
2018-11-11T17:17:48.989Z,27.17
2018-11-11T17:20:19.616Z,24.93
2018-11-11T17:22:48.687Z,26.90
2018-11-11T17:25:17.886Z,25.50
2018-11-11T17:27:46.519Z,25.27
2018-11-11T17:30:17.080Z,26.03
2018-11-11T17:32:45.942Z,27.07
2018-11-11T17:35:14.132Z,25.47
2018-11-11T17:37:42.641Z,26.97
2018-11-11T17:40:11.608Z,29.17
2018-11-11T17:42:41.121Z,28.30
2018-11-11T17:45:09.576Z,27.73
2018-11-11T17:47:38.037Z,28.13
2018-11-11T17:50:07.698Z,28.33
2018-11-11T17:52:35.872Z,28.43
2018-11-11T17:55:04.191Z,28.90
2018-11-11T17:57:32.362Z,27.37
2018-11-11T18:00:00.600Z,29.07
2018-11-11T18:02:28.789Z,29.43
2018-11-11T18:04:56.949Z,26.93
2018-11-11T18:07:25.258Z,29.03
2018-11-11T18:09:53.409Z,29.00
2018-11-11T18:12:21.570Z,28.90
2018-11-11T18:14:49.794Z,29.13
2018-11-11T18:17:18.062Z,29.27
2018-11-11T18:19:46.112Z,30.20
2018-11-11T18:22:14.219Z,28.13
2018-11-11T18:24:43.154Z,27.73
2018-11-11T18:27:11.487Z,28.70
2018-11-11T18:29:39.849Z,29.40
2018-11-11T18:32:09.166Z,30.73
2018-11-11T18:34:37.889Z,29.87
2018-11-11T18:37:06.057Z,30.30
2018-11-11T18:39:34.239Z,28.90
2018-11-11T18:42:02.520Z,29.23
2018-11-11T18:44:30.730Z,27.97
2018-11-11T18:46:59.119Z,29.47
2018-11-11T18:49:27.273Z,31.20
2018-11-11T18:51:55.442Z,27.87
2018-11-11T18:54:23.566Z,28.53
2018-11-11T18:56:51.795Z,28.63
2018-11-11T18:59:20.068Z,30.07
2018-11-11T19:01:48.341Z,30.83
2018-11-11T19:04:16.484Z,29.90
2018-11-11T19:06:44.753Z,31.77
2018-11-11T19:09:14.121Z,30.63
2018-11-11T19:11:42.272Z,30.60
2018-11-11T19:14:10.439Z,30.57
2018-11-11T19:16:38.992Z,32.33
2018-11-11T19:19:07.823Z,29.57
2018-11-11T19:21:36.579Z,31.50
2018-11-11T19:24:04.784Z,29.53
2018-11-11T19:26:34.022Z,30.63
2018-11-11T19:29:02.297Z,30.10
2018-11-11T19:31:30.877Z,29.57
2018-11-11T19:33:59.097Z,29.17
2018-11-11T19:36:27.537Z,30.57
2018-11-11T19:38:55.910Z,31.60
2018-11-11T19:41:24.227Z,31.03
2018-11-11T19:43:54.460Z,30.23
2018-11-11T19:46:22.699Z,30.50
2018-11-11T19:48:50.958Z,29.97
2018-11-11T19:51:19.150Z,32.53
2018-11-11T19:53:47.412Z,32.53
2018-11-11T19:56:15.630Z,32.03
2018-11-11T19:58:43.769Z,32.20
2018-11-11T20:01:12.057Z,33.70
2018-11-11T20:03:41.011Z,31.53
2018-11-11T20:06:09.303Z,31.73
2018-11-11T20:08:37.594Z,32.30
2018-11-11T20:11:05.788Z,31.57
2018-11-11T20:13:34.009Z,33.80
2018-11-11T20:16:02.542Z,33.17
2018-11-11T20:18:30.808Z,33.20
2018-11-11T20:20:59.021Z,34.60
2018-11-11T20:23:27.198Z,34.23
2018-11-11T20:25:55.636Z,33.13
2018-11-11T20:28:23.810Z,32.10
2018-11-11T20:30:52.000Z,31.63
2018-11-11T20:33:20.203Z,31.70
2018-11-11T20:35:48.457Z,32.43
2018-11-11T20:38:17.294Z,32.10
2018-11-11T20:40:45.546Z,32.90
2018-11-11T20:43:13.757Z,32.00
2018-11-11T20:45:41.883Z,31.33
2018-11-11T20:48:10.062Z,31.77
2018-11-11T20:50:40.474Z,33.27
2018-11-11T20:53:09.628Z,33.40
2018-11-11T20:55:38.508Z,33.23
2018-11-11T20:58:06.682Z,32.93
2018-11-11T21:00:36.293Z,34.97
2018-11-11T21:03:04.669Z,35.43
2018-11-11T21:05:32.823Z,34.23
2018-11-11T21:08:00.987Z,31.83
2018-11-11T21:10:30.222Z,32.17
2018-11-11T21:12:58.808Z,31.50
2018-11-11T21:15:28.104Z,31.53
2018-11-11T21:17:56.262Z,32.53
2018-11-11T21:20:27.832Z,30.50
2018-11-11T21:22:56.101Z,32.80
2018-11-11T21:25:24.426Z,32.63
2018-11-11T21:27:52.647Z,31.47
2018-11-11T21:30:23.296Z,30.40
2018-11-11T21:32:51.678Z,31.83
2018-11-11T21:35:19.996Z,30.23
2018-11-11T21:37:48.343Z,31.23
2018-11-11T21:40:17.769Z,33.20
2018-11-11T21:42:46.969Z,32.80
2018-11-11T21:45:17.325Z,30.33
2018-11-11T21:47:45.819Z,32.57
2018-11-11T21:50:15.352Z,32.47
2018-11-11T21:52:45.203Z,33.47
2018-11-11T21:55:13.490Z,35.27
2018-11-11T21:57:41.713Z,33.37
2018-11-11T22:00:11.462Z,35.07
2018-11-11T22:02:39.702Z,33.57
2018-11-11T22:05:09.797Z,32.23
2018-11-11T22:07:38.451Z,29.83
2018-11-11T22:10:07.983Z,28.40
2018-11-11T22:12:36.166Z,27.70
2018-11-11T22:15:04.707Z,25.63
2018-11-11T22:17:33.020Z,27.40
2018-11-11T22:20:01.204Z,24.60
2018-11-11T22:22:29.563Z,27.00
2018-11-11T22:24:57.949Z,29.37
2018-11-11T22:27:27.289Z,31.87
2018-11-11T22:29:55.633Z,29.87
2018-11-11T22:32:23.836Z,30.23
2018-11-11T22:34:52.220Z,32.27
2018-11-11T22:37:20.483Z,30.47
2018-11-11T22:39:48.695Z,29.30
2018-11-11T22:42:17.113Z,32.80
2018-11-11T22:44:45.301Z,35.23
2018-11-11T22:47:13.736Z,34.93
2018-11-11T22:49:42.030Z,36.67
2018-11-11T22:52:10.337Z,33.13
2018-11-11T22:54:38.840Z,36.40
2018-11-11T22:57:08.193Z,35.03
2018-11-11T22:59:36.397Z,35.60
2018-11-11T23:02:04.569Z,32.97
2018-11-11T23:04:32.845Z,31.80
2018-11-11T23:07:01.079Z,31.20
2018-11-11T23:09:29.267Z,26.40
2018-11-11T23:11:57.537Z,27.60
2018-11-11T23:14:25.786Z,26.73
2018-11-11T23:16:54.021Z,25.20
2018-11-11T23:19:22.273Z,24.90
2018-11-11T23:21:50.483Z,23.80
2018-11-11T23:24:18.619Z,25.23
2018-11-11T23:26:47.012Z,26.67
2018-11-11T23:29:15.202Z,26.47
2018-11-11T23:31:43.822Z,28.67
2018-11-11T23:34:11.966Z,24.90
2018-11-11T23:36:40.160Z,25.53
2018-11-11T23:39:09.499Z,25.90
2018-11-11T23:41:38.050Z,25.33
2018-11-11T23:44:06.684Z,26.50
2018-11-11T23:46:35.101Z,24.40
2018-11-11T23:49:03.355Z,26.17
2018-11-11T23:51:31.556Z,27.70
2018-11-11T23:53:59.776Z,25.73
2018-11-11T23:56:27.996Z,26.83
2018-11-11T23:58:56.550Z,26.37
